sensor_id;sensor_type;location;lat;lon;timestamp;temperature;humidity
74657;DHT22;63185;45.642;13.764;2023-12-20T00:01:33;9.80;61.90
74657;DHT22;63185;45.642;13.764;2023-12-20T00:03:59;9.80;61.70
74657;DHT22;63185;45.642;13.764;2023-12-20T00:06:24;9.70;61.60
74657;DHT22;63185;45.642;13.764;2023-12-20T00:08:50;9.70;62.20
74657;DHT22;63185;45.642;13.764;2023-12-20T00:11:16;9.70;62.40
74657;DHT22;63185;45.642;13.764;2023-12-20T00:13:41;9.70;62.30
74657;DHT22;63185;45.642;13.764;2023-12-20T00:16:07;9.80;62.00
74657;DHT22;63185;45.642;13.764;2023-12-20T00:18:33;9.80;61.80
74657;DHT22;63185;45.642;13.764;2023-12-20T00:20:58;9.80;61.60
74657;DHT22;63185;45.642;13.764;2023-12-20T00:23:24;9.80;61.40
74657;DHT22;63185;45.642;13.764;2023-12-20T00:25:50;9.80;61.60
74657;DHT22;63185;45.642;13.764;2023-12-20T00:28:15;9.80;61.50
74657;DHT22;63185;45.642;13.764;2023-12-20T00:30:41;9.80;62.20
74657;DHT22;63185;45.642;13.764;2023-12-20T00:33:09;9.90;61.40
74657;DHT22;63185;45.642;13.764;2023-12-20T00:35:35;9.80;61.80
74657;DHT22;63185;45.642;13.764;2023-12-20T00:38:01;9.90;61.40
74657;DHT22;63185;45.642;13.764;2023-12-20T00:40:26;9.90;61.70
74657;DHT22;63185;45.642;13.764;2023-12-20T00:42:52;9.90;61.70
74657;DHT22;63185;45.642;13.764;2023-12-20T00:45:18;9.90;61.80
74657;DHT22;63185;45.642;13.764;2023-12-20T00:47:43;9.90;62.20
74657;DHT22;63185;45.642;13.764;2023-12-20T00:50:09;9.90;62.00
74657;DHT22;63185;45.642;13.764;2023-12-20T00:52:35;9.90;62.60
74657;DHT22;63185;45.642;13.764;2023-12-20T00:55:01;9.80;62.00
74657;DHT22;63185;45.642;13.764;2023-12-20T00:57:26;9.80;60.70
74657;DHT22;63185;45.642;13.764;2023-12-20T00:59:52;9.90;60.40
74657;DHT22;63185;45.642;13.764;2023-12-20T01:02:17;9.90;59.50
74657;DHT22;63185;45.642;13.764;2023-12-20T01:04:43;9.90;58.00
74657;DHT22;63185;45.642;13.764;2023-12-20T01:07:09;10.10;58.00
74657;DHT22;63185;45.642;13.764;2023-12-20T01:09:34;10.20;58.40
74657;DHT22;63185;45.642;13.764;2023-12-20T01:12:00;10.30;57.60
74657;DHT22;63185;45.642;13.764;2023-12-20T01:14:26;10.40;57.60
74657;DHT22;63185;45.642;13.764;2023-12-20T01:16:51;10.40;57.90
74657;DHT22;63185;45.642;13.764;2023-12-20T01:19:17;10.40;57.80
74657;DHT22;63185;45.642;13.764;2023-12-20T01:21:42;10.40;58.90
74657;DHT22;63185;45.642;13.764;2023-12-20T01:24:08;10.40;58.50
74657;DHT22;63185;45.642;13.764;2023-12-20T01:26:34;10.30;59.60
74657;DHT22;63185;45.642;13.764;2023-12-20T01:29:00;10.40;59.20
74657;DHT22;63185;45.642;13.764;2023-12-20T01:31:26;10.30;59.60
74657;DHT22;63185;45.642;13.764;2023-12-20T01:33:52;10.30;59.00
74657;DHT22;63185;45.642;13.764;2023-12-20T01:36:18;10.30;59.30
74657;DHT22;63185;45.642;13.764;2023-12-20T01:38:44;10.30;59.80
74657;DHT22;63185;45.642;13.764;2023-12-20T01:41:09;10.30;59.80
74657;DHT22;63185;45.642;13.764;2023-12-20T01:43:35;10.30;59.70
74657;DHT22;63185;45.642;13.764;2023-12-20T01:46:01;10.30;59.80
74657;DHT22;63185;45.642;13.764;2023-12-20T01:48:27;10.30;60.00
74657;DHT22;63185;45.642;13.764;2023-12-20T01:50:54;10.30;60.10
74657;DHT22;63185;45.642;13.764;2023-12-20T01:53:21;10.40;60.10
74657;DHT22;63185;45.642;13.764;2023-12-20T01:55:48;10.40;60.10
74657;DHT22;63185;45.642;13.764;2023-12-20T01:58:15;10.50;60.00
74657;DHT22;63185;45.642;13.764;2023-12-20T02:00:41;10.40;60.20
74657;DHT22;63185;45.642;13.764;2023-12-20T02:03:07;10.40;60.40
74657;DHT22;63185;45.642;13.764;2023-12-20T02:05:35;10.50;60.30
74657;DHT22;63185;45.642;13.764;2023-12-20T02:08:01;10.50;60.50
74657;DHT22;63185;45.642;13.764;2023-12-20T02:10:27;10.50;60.40
74657;DHT22;63185;45.642;13.764;2023-12-20T02:12:53;10.50;60.40
74657;DHT22;63185;45.642;13.764;2023-12-20T02:15:19;10.60;60.30
74657;DHT22;63185;45.642;13.764;2023-12-20T02:17:45;10.60;60.10
74657;DHT22;63185;45.642;13.764;2023-12-20T02:20:11;10.70;60.00
74657;DHT22;63185;45.642;13.764;2023-12-20T02:22:37;10.70;60.10
74657;DHT22;63185;45.642;13.764;2023-12-20T02:25:03;10.80;60.10
74657;DHT22;63185;45.642;13.764;2023-12-20T02:27:29;10.80;60.30
74657;DHT22;63185;45.642;13.764;2023-12-20T02:29:55;10.80;60.40
74657;DHT22;63185;45.642;13.764;2023-12-20T02:32:21;10.70;60.60
74657;DHT22;63185;45.642;13.764;2023-12-20T02:34:48;10.70;60.00
74657;DHT22;63185;45.642;13.764;2023-12-20T02:37:14;10.70;59.50
74657;DHT22;63185;45.642;13.764;2023-12-20T02:39:40;10.70;59.40
74657;DHT22;63185;45.642;13.764;2023-12-20T02:42:06;10.70;59.50
74657;DHT22;63185;45.642;13.764;2023-12-20T02:44:31;10.70;59.80
74657;DHT22;63185;45.642;13.764;2023-12-20T02:46:57;10.70;59.60
74657;DHT22;63185;45.642;13.764;2023-12-20T02:49:22;10.70;60.00
74657;DHT22;63185;45.642;13.764;2023-12-20T02:51:48;10.60;60.60
74657;DHT22;63185;45.642;13.764;2023-12-20T02:54:14;10.50;60.00
74657;DHT22;63185;45.642;13.764;2023-12-20T02:56:39;10.50;60.00
74657;DHT22;63185;45.642;13.764;2023-12-20T02:59:05;10.50;60.70
74657;DHT22;63185;45.642;13.764;2023-12-20T03:01:31;10.40;61.40
74657;DHT22;63185;45.642;13.764;2023-12-20T03:03:57;10.30;62.80
74657;DHT22;63185;45.642;13.764;2023-12-20T03:06:23;10.30;64.60
74657;DHT22;63185;45.642;13.764;2023-12-20T03:08:49;10.20;65.50
74657;DHT22;63185;45.642;13.764;2023-12-20T03:11:14;10.20;66.40
74657;DHT22;63185;45.642;13.764;2023-12-20T03:13:40;10.20;68.50
74657;DHT22;63185;45.642;13.764;2023-12-20T03:16:13;10.20;68.80
74657;DHT22;63185;45.642;13.764;2023-12-20T03:18:39;10.20;69.50
74657;DHT22;63185;45.642;13.764;2023-12-20T03:21:05;10.10;70.00
74657;DHT22;63185;45.642;13.764;2023-12-20T03:23:31;10.10;70.30
74657;DHT22;63185;45.642;13.764;2023-12-20T03:25:59;10.10;70.50
74657;DHT22;63185;45.642;13.764;2023-12-20T03:28:26;10.10;70.30
74657;DHT22;63185;45.642;13.764;2023-12-20T03:30:52;10.20;69.10
74657;DHT22;63185;45.642;13.764;2023-12-20T03:33:17;10.30;68.20
74657;DHT22;63185;45.642;13.764;2023-12-20T03:35:43;10.30;67.00
74657;DHT22;63185;45.642;13.764;2023-12-20T03:38:09;10.30;67.20
74657;DHT22;63185;45.642;13.764;2023-12-20T03:40:34;10.20;67.20
74657;DHT22;63185;45.642;13.764;2023-12-20T03:43:00;10.20;67.30
74657;DHT22;63185;45.642;13.764;2023-12-20T03:45:26;10.20;67.10
74657;DHT22;63185;45.642;13.764;2023-12-20T03:47:52;10.20;67.20
74657;DHT22;63185;45.642;13.764;2023-12-20T03:50:25;10.10;66.70
74657;DHT22;63185;45.642;13.764;2023-12-20T03:52:51;10.10;66.50
74657;DHT22;63185;45.642;13.764;2023-12-20T03:55:17;10.10;64.80
74657;DHT22;63185;45.642;13.764;2023-12-20T03:57:43;10.10;64.90
74657;DHT22;63185;45.642;13.764;2023-12-20T04:00:09;10.20;65.50
74657;DHT22;63185;45.642;13.764;2023-12-20T04:02:37;10.20;65.70
74657;DHT22;63185;45.642;13.764;2023-12-20T04:05:02;10.10;66.10
74657;DHT22;63185;45.642;13.764;2023-12-20T04:07:28;10.10;66.50
74657;DHT22;63185;45.642;13.764;2023-12-20T04:09:55;10.00;66.60
74657;DHT22;63185;45.642;13.764;2023-12-20T04:12:20;10.00;67.00
74657;DHT22;63185;45.642;13.764;2023-12-20T04:14:46;9.90;66.90
74657;DHT22;63185;45.642;13.764;2023-12-20T04:17:12;9.90;67.30
74657;DHT22;63185;45.642;13.764;2023-12-20T04:19:37;10.00;68.30
74657;DHT22;63185;45.642;13.764;2023-12-20T04:22:03;10.00;69.50
74657;DHT22;63185;45.642;13.764;2023-12-20T04:24:29;10.10;69.70
74657;DHT22;63185;45.642;13.764;2023-12-20T04:26:54;10.10;68.80
74657;DHT22;63185;45.642;13.764;2023-12-20T04:29:20;10.00;68.00
74657;DHT22;63185;45.642;13.764;2023-12-20T04:31:45;10.10;67.50
74657;DHT22;63185;45.642;13.764;2023-12-20T04:34:11;10.00;66.90
74657;DHT22;63185;45.642;13.764;2023-12-20T04:36:37;10.00;67.00
74657;DHT22;63185;45.642;13.764;2023-12-20T04:39:02;10.00;66.70
74657;DHT22;63185;45.642;13.764;2023-12-20T04:41:28;9.90;66.20
74657;DHT22;63185;45.642;13.764;2023-12-20T04:43:54;9.90;66.10
74657;DHT22;63185;45.642;13.764;2023-12-20T04:46:19;9.80;65.80
74657;DHT22;63185;45.642;13.764;2023-12-20T04:48:45;9.80;65.50
74657;DHT22;63185;45.642;13.764;2023-12-20T04:51:11;9.80;65.00
74657;DHT22;63185;45.642;13.764;2023-12-20T04:53:36;9.70;64.90
74657;DHT22;63185;45.642;13.764;2023-12-20T04:56:02;9.60;64.60
74657;DHT22;63185;45.642;13.764;2023-12-20T04:58:28;9.60;65.20
74657;DHT22;63185;45.642;13.764;2023-12-20T05:00:53;9.60;65.10
74657;DHT22;63185;45.642;13.764;2023-12-20T05:03:19;9.60;64.60
74657;DHT22;63185;45.642;13.764;2023-12-20T05:05:45;9.60;64.10
74657;DHT22;63185;45.642;13.764;2023-12-20T05:08:11;9.50;64.50
74657;DHT22;63185;45.642;13.764;2023-12-20T05:10:36;9.50;65.30
74657;DHT22;63185;45.642;13.764;2023-12-20T05:13:02;9.50;65.80
74657;DHT22;63185;45.642;13.764;2023-12-20T05:15:28;9.50;65.90
74657;DHT22;63185;45.642;13.764;2023-12-20T05:17:53;9.50;66.10
74657;DHT22;63185;45.642;13.764;2023-12-20T05:20:19;9.50;66.30
74657;DHT22;63185;45.642;13.764;2023-12-20T05:22:44;9.60;66.30
74657;DHT22;63185;45.642;13.764;2023-12-20T05:25:10;9.60;66.20
74657;DHT22;63185;45.642;13.764;2023-12-20T05:27:36;9.50;66.10
74657;DHT22;63185;45.642;13.764;2023-12-20T05:30:02;9.50;65.90
74657;DHT22;63185;45.642;13.764;2023-12-20T05:32:30;9.60;65.70
74657;DHT22;63185;45.642;13.764;2023-12-20T05:34:56;9.60;65.30
74657;DHT22;63185;45.642;13.764;2023-12-20T05:37:22;9.60;64.70
74657;DHT22;63185;45.642;13.764;2023-12-20T05:39:47;9.60;64.20
74657;DHT22;63185;45.642;13.764;2023-12-20T05:42:13;9.60;63.20
74657;DHT22;63185;45.642;13.764;2023-12-20T05:44:39;9.60;62.80
74657;DHT22;63185;45.642;13.764;2023-12-20T05:47:05;9.60;62.60
74657;DHT22;63185;45.642;13.764;2023-12-20T05:49:30;9.70;62.60
74657;DHT22;63185;45.642;13.764;2023-12-20T05:51:57;9.70;62.80
74657;DHT22;63185;45.642;13.764;2023-12-20T05:54:22;9.70;62.30
74657;DHT22;63185;45.642;13.764;2023-12-20T05:56:48;9.70;62.10
74657;DHT22;63185;45.642;13.764;2023-12-20T05:59:14;9.60;61.80
74657;DHT22;63185;45.642;13.764;2023-12-20T06:01:40;9.70;62.30
74657;DHT22;63185;45.642;13.764;2023-12-20T06:04:06;9.70;62.40
74657;DHT22;63185;45.642;13.764;2023-12-20T06:06:31;9.70;62.80
74657;DHT22;63185;45.642;13.764;2023-12-20T06:08:57;9.70;62.50
74657;DHT22;63185;45.642;13.764;2023-12-20T06:11:23;9.80;61.30
74657;DHT22;63185;45.642;13.764;2023-12-20T06:13:48;9.90;61.50
74657;DHT22;63185;45.642;13.764;2023-12-20T06:16:17;10.00;61.50
74657;DHT22;63185;45.642;13.764;2023-12-20T06:18:43;10.00;61.30
74657;DHT22;63185;45.642;13.764;2023-12-20T06:21:09;10.00;61.10
74657;DHT22;63185;45.642;13.764;2023-12-20T06:23:38;10.10;60.90
74657;DHT22;63185;45.642;13.764;2023-12-20T06:26:04;10.10;61.20
74657;DHT22;63185;45.642;13.764;2023-12-20T06:28:29;10.20;63.00
74657;DHT22;63185;45.642;13.764;2023-12-20T06:30:55;10.20;64.50
74657;DHT22;63185;45.642;13.764;2023-12-20T06:33:22;10.20;66.60
74657;DHT22;63185;45.642;13.764;2023-12-20T06:35:48;10.20;68.10
74657;DHT22;63185;45.642;13.764;2023-12-20T06:38:14;10.20;69.50
74657;DHT22;63185;45.642;13.764;2023-12-20T06:40:40;10.20;71.70
74657;DHT22;63185;45.642;13.764;2023-12-20T06:43:06;10.20;72.30
74657;DHT22;63185;45.642;13.764;2023-12-20T06:48:14;10.20;72.40
74657;DHT22;63185;45.642;13.764;2023-12-20T06:50:40;10.30;72.40
74657;DHT22;63185;45.642;13.764;2023-12-20T06:53:06;10.30;73.30
74657;DHT22;63185;45.642;13.764;2023-12-20T06:55:35;10.40;72.90
74657;DHT22;63185;45.642;13.764;2023-12-20T06:58:03;10.40;72.80
74657;DHT22;63185;45.642;13.764;2023-12-20T07:00:29;10.50;72.80
74657;DHT22;63185;45.642;13.764;2023-12-20T07:02:54;10.50;72.00
74657;DHT22;63185;45.642;13.764;2023-12-20T07:05:20;10.50;72.30
74657;DHT22;63185;45.642;13.764;2023-12-20T07:07:46;10.60;72.50
74657;DHT22;63185;45.642;13.764;2023-12-20T07:10:13;10.60;72.40
74657;DHT22;63185;45.642;13.764;2023-12-20T07:12:38;10.60;72.00
74657;DHT22;63185;45.642;13.764;2023-12-20T07:15:04;10.70;71.60
74657;DHT22;63185;45.642;13.764;2023-12-20T07:17:31;10.80;70.90
74657;DHT22;63185;45.642;13.764;2023-12-20T07:19:58;10.80;70.40
74657;DHT22;63185;45.642;13.764;2023-12-20T07:22:24;10.90;69.80
74657;DHT22;63185;45.642;13.764;2023-12-20T07:24:50;11.10;69.00
74657;DHT22;63185;45.642;13.764;2023-12-20T07:27:17;11.10;68.80
74657;DHT22;63185;45.642;13.764;2023-12-20T07:29:43;11.20;68.70
74657;DHT22;63185;45.642;13.764;2023-12-20T07:32:09;11.30;68.70
74657;DHT22;63185;45.642;13.764;2023-12-20T07:34:34;11.30;68.30
74657;DHT22;63185;45.642;13.764;2023-12-20T07:37:00;11.30;68.50
74657;DHT22;63185;45.642;13.764;2023-12-20T07:39:26;11.40;68.20
74657;DHT22;63185;45.642;13.764;2023-12-20T07:41:52;11.50;67.80
74657;DHT22;63185;45.642;13.764;2023-12-20T07:44:18;11.60;66.60
74657;DHT22;63185;45.642;13.764;2023-12-20T07:46:44;11.50;65.90
74657;DHT22;63185;45.642;13.764;2023-12-20T07:49:09;11.60;65.50
74657;DHT22;63185;45.642;13.764;2023-12-20T07:51:36;11.60;64.40
74657;DHT22;63185;45.642;13.764;2023-12-20T07:54:02;11.70;63.90
74657;DHT22;63185;45.642;13.764;2023-12-20T07:56:28;11.80;63.80
74657;DHT22;63185;45.642;13.764;2023-12-20T07:58:55;11.90;61.60
74657;DHT22;63185;45.642;13.764;2023-12-20T08:01:20;12.00;60.20
74657;DHT22;63185;45.642;13.764;2023-12-20T08:03:46;12.10;59.50
74657;DHT22;63185;45.642;13.764;2023-12-20T08:06:12;12.30;59.30
74657;DHT22;63185;45.642;13.764;2023-12-20T08:08:37;12.40;59.10
74657;DHT22;63185;45.642;13.764;2023-12-20T08:11:03;12.50;58.50
74657;DHT22;63185;45.642;13.764;2023-12-20T08:13:29;12.60;57.80
74657;DHT22;63185;45.642;13.764;2023-12-20T08:15:55;12.70;58.20
74657;DHT22;63185;45.642;13.764;2023-12-20T08:18:21;12.80;57.80
74657;DHT22;63185;45.642;13.764;2023-12-20T08:20:48;12.80;57.70
74657;DHT22;63185;45.642;13.764;2023-12-20T08:23:15;12.90;57.50
74657;DHT22;63185;45.642;13.764;2023-12-20T08:25:40;13.00;57.50
74657;DHT22;63185;45.642;13.764;2023-12-20T08:28:06;13.10;55.80
74657;DHT22;63185;45.642;13.764;2023-12-20T08:30:32;13.10;55.90
74657;DHT22;63185;45.642;13.764;2023-12-20T08:33:00;13.10;56.10
74657;DHT22;63185;45.642;13.764;2023-12-20T08:35:25;13.10;56.30
74657;DHT22;63185;45.642;13.764;2023-12-20T08:37:51;13.10;57.50
74657;DHT22;63185;45.642;13.764;2023-12-20T08:40:17;13.10;58.00
74657;DHT22;63185;45.642;13.764;2023-12-20T08:42:42;13.10;57.70
74657;DHT22;63185;45.642;13.764;2023-12-20T08:45:08;13.10;57.60
74657;DHT22;63185;45.642;13.764;2023-12-20T08:47:34;13.10;56.80
74657;DHT22;63185;45.642;13.764;2023-12-20T08:49:59;13.10;56.90
74657;DHT22;63185;45.642;13.764;2023-12-20T08:52:27;13.10;56.20
74657;DHT22;63185;45.642;13.764;2023-12-20T08:54:53;13.20;55.90
74657;DHT22;63185;45.642;13.764;2023-12-20T08:57:22;13.20;56.30
74657;DHT22;63185;45.642;13.764;2023-12-20T08:59:51;13.20;56.70
74657;DHT22;63185;45.642;13.764;2023-12-20T09:02:17;13.30;56.80
74657;DHT22;63185;45.642;13.764;2023-12-20T09:04:43;13.30;57.30
74657;DHT22;63185;45.642;13.764;2023-12-20T09:07:24;13.30;57.60
74657;DHT22;63185;45.642;13.764;2023-12-20T09:09:50;13.40;58.00
74657;DHT22;63185;45.642;13.764;2023-12-20T09:12:18;13.40;58.30
74657;DHT22;63185;45.642;13.764;2023-12-20T09:14:44;13.50;58.70
74657;DHT22;63185;45.642;13.764;2023-12-20T09:17:10;13.60;59.10
74657;DHT22;63185;45.642;13.764;2023-12-20T09:19:37;13.60;59.60
74657;DHT22;63185;45.642;13.764;2023-12-20T09:22:04;13.70;60.20
74657;DHT22;63185;45.642;13.764;2023-12-20T09:24:31;13.80;60.60
74657;DHT22;63185;45.642;13.764;2023-12-20T09:26:56;13.90;60.80
74657;DHT22;63185;45.642;13.764;2023-12-20T09:29:23;13.90;60.70
74657;DHT22;63185;45.642;13.764;2023-12-20T09:31:50;14.00;60.80
74657;DHT22;63185;45.642;13.764;2023-12-20T09:34:15;14.10;60.90
74657;DHT22;63185;45.642;13.764;2023-12-20T09:36:42;14.10;61.10
74657;DHT22;63185;45.642;13.764;2023-12-20T09:39:13;14.20;61.00
74657;DHT22;63185;45.642;13.764;2023-12-20T09:41:43;14.20;60.60
74657;DHT22;63185;45.642;13.764;2023-12-20T09:44:15;14.30;60.50
74657;DHT22;63185;45.642;13.764;2023-12-20T09:46:43;14.40;60.50
74657;DHT22;63185;45.642;13.764;2023-12-20T09:49:10;14.30;60.30
74657;DHT22;63185;45.642;13.764;2023-12-20T09:51:36;14.40;60.20
74657;DHT22;63185;45.642;13.764;2023-12-20T09:54:03;14.40;59.90
74657;DHT22;63185;45.642;13.764;2023-12-20T09:56:30;14.40;59.30
74657;DHT22;63185;45.642;13.764;2023-12-20T09:58:56;14.40;58.10
74657;DHT22;63185;45.642;13.764;2023-12-20T10:01:23;14.50;58.20
74657;DHT22;63185;45.642;13.764;2023-12-20T10:03:51;14.50;58.60
74657;DHT22;63185;45.642;13.764;2023-12-20T10:06:19;14.60;58.30
74657;DHT22;63185;45.642;13.764;2023-12-20T10:08:45;14.60;58.30
74657;DHT22;63185;45.642;13.764;2023-12-20T10:11:11;14.60;56.00
74657;DHT22;63185;45.642;13.764;2023-12-20T10:13:40;14.70;56.00
74657;DHT22;63185;45.642;13.764;2023-12-20T10:16:08;14.80;55.60
74657;DHT22;63185;45.642;13.764;2023-12-20T10:18:34;14.70;55.30
74657;DHT22;63185;45.642;13.764;2023-12-20T10:21:03;14.70;55.20
74657;DHT22;63185;45.642;13.764;2023-12-20T10:23:30;14.60;55.40
74657;DHT22;63185;45.642;13.764;2023-12-20T10:25:57;14.60;56.00
74657;DHT22;63185;45.642;13.764;2023-12-20T10:28:25;14.60;56.10
74657;DHT22;63185;45.642;13.764;2023-12-20T10:30:54;14.60;56.30
74657;DHT22;63185;45.642;13.764;2023-12-20T10:33:27;14.50;55.90
74657;DHT22;63185;45.642;13.764;2023-12-20T10:35:57;14.50;56.20
74657;DHT22;63185;45.642;13.764;2023-12-20T10:38:23;14.50;56.40
74657;DHT22;63185;45.642;13.764;2023-12-20T10:40:54;14.50;56.70
74657;DHT22;63185;45.642;13.764;2023-12-20T10:43:20;14.50;56.90
74657;DHT22;63185;45.642;13.764;2023-12-20T10:45:46;14.50;57.00
74657;DHT22;63185;45.642;13.764;2023-12-20T10:48:11;14.50;56.90
74657;DHT22;63185;45.642;13.764;2023-12-20T10:50:38;14.60;57.10
74657;DHT22;63185;45.642;13.764;2023-12-20T10:53:04;14.60;56.90
74657;DHT22;63185;45.642;13.764;2023-12-20T10:55:30;14.60;56.90
74657;DHT22;63185;45.642;13.764;2023-12-20T10:58:07;14.70;56.50
74657;DHT22;63185;45.642;13.764;2023-12-20T11:00:39;14.80;56.30
74657;DHT22;63185;45.642;13.764;2023-12-20T11:03:10;14.80;56.90
74657;DHT22;63185;45.642;13.764;2023-12-20T11:06:01;15.00;56.80
74657;DHT22;63185;45.642;13.764;2023-12-20T11:08:36;15.10;56.30
74657;DHT22;63185;45.642;13.764;2023-12-20T11:11:10;15.20;56.20
74657;DHT22;63185;45.642;13.764;2023-12-20T11:16:27;15.40;56.00
74657;DHT22;63185;45.642;13.764;2023-12-20T11:18:52;15.50;55.40
74657;DHT22;63185;45.642;13.764;2023-12-20T11:21:19;15.60;54.20
74657;DHT22;63185;45.642;13.764;2023-12-20T11:23:45;15.50;54.30
74657;DHT22;63185;45.642;13.764;2023-12-20T11:26:11;15.60;54.30
74657;DHT22;63185;45.642;13.764;2023-12-20T11:28:36;15.60;54.30
74657;DHT22;63185;45.642;13.764;2023-12-20T11:31:02;15.60;54.20
74657;DHT22;63185;45.642;13.764;2023-12-20T11:33:36;15.60;54.70
74657;DHT22;63185;45.642;13.764;2023-12-20T11:36:02;15.60;54.80
74657;DHT22;63185;45.642;13.764;2023-12-20T11:38:38;15.60;54.40
74657;DHT22;63185;45.642;13.764;2023-12-20T11:41:07;15.50;54.20
74657;DHT22;63185;45.642;13.764;2023-12-20T11:43:37;15.30;54.80
74657;DHT22;63185;45.642;13.764;2023-12-20T11:46:07;15.30;55.20
74657;DHT22;63185;45.642;13.764;2023-12-20T11:48:35;15.30;55.20
74657;DHT22;63185;45.642;13.764;2023-12-20T11:51:01;15.30;55.20
74657;DHT22;63185;45.642;13.764;2023-12-20T11:53:29;15.30;55.20
74657;DHT22;63185;45.642;13.764;2023-12-20T11:55:56;15.20;55.40
74657;DHT22;63185;45.642;13.764;2023-12-20T11:58:22;15.20;55.60
74657;DHT22;63185;45.642;13.764;2023-12-20T12:00:49;15.20;56.60
74657;DHT22;63185;45.642;13.764;2023-12-20T12:03:15;15.30;56.50
74657;DHT22;63185;45.642;13.764;2023-12-20T12:05:41;15.30;56.40
74657;DHT22;63185;45.642;13.764;2023-12-20T12:08:07;15.30;56.70
74657;DHT22;63185;45.642;13.764;2023-12-20T12:10:33;15.30;56.70
74657;DHT22;63185;45.642;13.764;2023-12-20T12:12:59;15.30;57.00
74657;DHT22;63185;45.642;13.764;2023-12-20T12:15:26;15.30;57.20
74657;DHT22;63185;45.642;13.764;2023-12-20T12:17:55;15.30;57.20
74657;DHT22;63185;45.642;13.764;2023-12-20T12:20:22;15.20;57.80
74657;DHT22;63185;45.642;13.764;2023-12-20T12:25:24;15.30;57.90
74657;DHT22;63185;45.642;13.764;2023-12-20T12:27:51;15.30;57.10
74657;DHT22;63185;45.642;13.764;2023-12-20T12:30:16;15.40;56.60
74657;DHT22;63185;45.642;13.764;2023-12-20T12:32:44;15.40;56.80
74657;DHT22;63185;45.642;13.764;2023-12-20T12:35:13;15.50;57.00
74657;DHT22;63185;45.642;13.764;2023-12-20T12:37:40;15.60;57.10
74657;DHT22;63185;45.642;13.764;2023-12-20T12:40:07;15.60;57.30
74657;DHT22;63185;45.642;13.764;2023-12-20T12:42:35;15.60;57.90
74657;DHT22;63185;45.642;13.764;2023-12-20T12:45:01;15.70;57.90
74657;DHT22;63185;45.642;13.764;2023-12-20T12:47:27;15.70;58.10
74657;DHT22;63185;45.642;13.764;2023-12-20T12:49:53;15.70;58.20
74657;DHT22;63185;45.642;13.764;2023-12-20T12:52:19;15.70;58.30
74657;DHT22;63185;45.642;13.764;2023-12-20T12:54:45;15.70;58.60
74657;DHT22;63185;45.642;13.764;2023-12-20T12:57:11;15.60;58.70
74657;DHT22;63185;45.642;13.764;2023-12-20T12:59:37;15.60;59.00
74657;DHT22;63185;45.642;13.764;2023-12-20T13:02:03;15.70;58.80
74657;DHT22;63185;45.642;13.764;2023-12-20T13:04:29;15.60;58.70
74657;DHT22;63185;45.642;13.764;2023-12-20T13:06:54;15.60;58.90
74657;DHT22;63185;45.642;13.764;2023-12-20T13:09:20;15.60;59.40
74657;DHT22;63185;45.642;13.764;2023-12-20T13:11:46;15.60;60.00
74657;DHT22;63185;45.642;13.764;2023-12-20T13:14:12;15.50;60.20
74657;DHT22;63185;45.642;13.764;2023-12-20T13:16:41;15.50;60.00
74657;DHT22;63185;45.642;13.764;2023-12-20T13:19:07;15.40;60.00
74657;DHT22;63185;45.642;13.764;2023-12-20T13:21:33;15.40;59.90
74657;DHT22;63185;45.642;13.764;2023-12-20T13:23:59;15.40;59.80
74657;DHT22;63185;45.642;13.764;2023-12-20T13:26:24;15.40;59.80
74657;DHT22;63185;45.642;13.764;2023-12-20T13:28:50;15.40;60.20
74657;DHT22;63185;45.642;13.764;2023-12-20T13:31:16;15.40;60.50
74657;DHT22;63185;45.642;13.764;2023-12-20T13:33:41;15.40;60.50
74657;DHT22;63185;45.642;13.764;2023-12-20T13:36:07;15.40;60.60
74657;DHT22;63185;45.642;13.764;2023-12-20T13:38:33;15.30;60.70
74657;DHT22;63185;45.642;13.764;2023-12-20T13:40:59;15.40;60.60
74657;DHT22;63185;45.642;13.764;2023-12-20T13:43:24;15.40;60.60
74657;DHT22;63185;45.642;13.764;2023-12-20T13:45:50;15.30;60.70
74657;DHT22;63185;45.642;13.764;2023-12-20T13:48:16;15.40;60.70
74657;DHT22;63185;45.642;13.764;2023-12-20T13:50:42;15.30;60.70
74657;DHT22;63185;45.642;13.764;2023-12-20T13:53:08;15.30;60.80
74657;DHT22;63185;45.642;13.764;2023-12-20T13:55:33;15.30;60.80
74657;DHT22;63185;45.642;13.764;2023-12-20T13:58:02;15.30;61.10
74657;DHT22;63185;45.642;13.764;2023-12-20T14:00:27;15.30;61.20
74657;DHT22;63185;45.642;13.764;2023-12-20T14:02:53;15.30;61.30
74657;DHT22;63185;45.642;13.764;2023-12-20T14:05:19;15.20;61.60
74657;DHT22;63185;45.642;13.764;2023-12-20T14:07:45;15.20;61.80
74657;DHT22;63185;45.642;13.764;2023-12-20T14:10:14;15.10;61.90
74657;DHT22;63185;45.642;13.764;2023-12-20T14:12:39;15.10;62.10
74657;DHT22;63185;45.642;13.764;2023-12-20T14:15:06;15.00;62.30
74657;DHT22;63185;45.642;13.764;2023-12-20T14:17:39;15.00;62.80
74657;DHT22;63185;45.642;13.764;2023-12-20T14:20:06;14.90;63.00
74657;DHT22;63185;45.642;13.764;2023-12-20T14:22:32;14.90;62.90
74657;DHT22;63185;45.642;13.764;2023-12-20T14:24:58;14.80;63.10
74657;DHT22;63185;45.642;13.764;2023-12-20T14:27:23;14.80;63.40
74657;DHT22;63185;45.642;13.764;2023-12-20T14:29:53;14.60;63.80
74657;DHT22;63185;45.642;13.764;2023-12-20T14:32:19;14.60;63.90
74657;DHT22;63185;45.642;13.764;2023-12-20T14:34:45;14.60;64.40
74657;DHT22;63185;45.642;13.764;2023-12-20T14:37:10;14.60;64.40
74657;DHT22;63185;45.642;13.764;2023-12-20T14:39:36;14.50;64.40
74657;DHT22;63185;45.642;13.764;2023-12-20T14:42:07;14.50;64.60
74657;DHT22;63185;45.642;13.764;2023-12-20T14:44:36;14.50;64.70
74657;DHT22;63185;45.642;13.764;2023-12-20T14:47:02;14.40;65.10
74657;DHT22;63185;45.642;13.764;2023-12-20T14:49:28;14.40;65.30
74657;DHT22;63185;45.642;13.764;2023-12-20T14:51:53;14.30;65.30
74657;DHT22;63185;45.642;13.764;2023-12-20T14:54:19;14.30;65.20
74657;DHT22;63185;45.642;13.764;2023-12-20T14:56:46;14.20;65.40
74657;DHT22;63185;45.642;13.764;2023-12-20T14:59:13;14.20;65.70
74657;DHT22;63185;45.642;13.764;2023-12-20T15:01:39;14.10;65.60
74657;DHT22;63185;45.642;13.764;2023-12-20T15:04:08;14.10;65.40
74657;DHT22;63185;45.642;13.764;2023-12-20T15:06:34;14.10;65.30
74657;DHT22;63185;45.642;13.764;2023-12-20T15:09:01;14.10;64.90
74657;DHT22;63185;45.642;13.764;2023-12-20T15:11:28;14.10;64.90
74657;DHT22;63185;45.642;13.764;2023-12-20T15:13:54;14.10;64.50
74657;DHT22;63185;45.642;13.764;2023-12-20T15:16:23;14.20;64.00
74657;DHT22;63185;45.642;13.764;2023-12-20T15:18:49;14.20;64.20
74657;DHT22;63185;45.642;13.764;2023-12-20T15:21:16;14.20;63.80